sensor_id;sensor_type;location;lat;lon;timestamp;temperature;humidity
25953;DHT22;13750;50.804;8.764;2022-10-31T00:00:15;11.80;87.10
25953;DHT22;13750;50.804;8.764;2022-10-31T00:02:40;11.70;87.10
25953;DHT22;13750;50.804;8.764;2022-10-31T00:05:06;11.70;87.10
25953;DHT22;13750;50.804;8.764;2022-10-31T00:07:32;11.70;87.10
25953;DHT22;13750;50.804;8.764;2022-10-31T00:09:57;11.70;87.20
25953;DHT22;13750;50.804;8.764;2022-10-31T00:12:23;11.70;87.10
25953;DHT22;13750;50.804;8.764;2022-10-31T00:14:48;11.70;87.20
25953;DHT22;13750;50.804;8.764;2022-10-31T00:17:14;11.70;87.20
25953;DHT22;13750;50.804;8.764;2022-10-31T00:19:39;11.70;87.10
25953;DHT22;13750;50.804;8.764;2022-10-31T00:22:05;11.70;87.10
25953;DHT22;13750;50.804;8.764;2022-10-31T00:24:30;11.70;87.20
25953;DHT22;13750;50.804;8.764;2022-10-31T00:26:58;11.70;87.10
25953;DHT22;13750;50.804;8.764;2022-10-31T00:29:23;11.60;87.10
25953;DHT22;13750;50.804;8.764;2022-10-31T00:31:49;11.60;87.20
25953;DHT22;13750;50.804;8.764;2022-10-31T00:34:14;11.60;87.10
25953;DHT22;13750;50.804;8.764;2022-10-31T00:36:40;11.60;87.10
25953;DHT22;13750;50.804;8.764;2022-10-31T00:39:05;11.60;87.20
25953;DHT22;13750;50.804;8.764;2022-10-31T00:41:31;11.60;87.20
25953;DHT22;13750;50.804;8.764;2022-10-31T00:43:56;11.60;87.20
25953;DHT22;13750;50.804;8.764;2022-10-31T00:46:22;11.60;87.10
25953;DHT22;13750;50.804;8.764;2022-10-31T00:48:47;11.60;87.20
25953;DHT22;13750;50.804;8.764;2022-10-31T00:51:13;11.60;87.20
25953;DHT22;13750;50.804;8.764;2022-10-31T00:53:39;11.60;87.20
25953;DHT22;13750;50.804;8.764;2022-10-31T00:56:04;11.60;87.10
25953;DHT22;13750;50.804;8.764;2022-10-31T00:58:30;11.50;87.00
25953;DHT22;13750;50.804;8.764;2022-10-31T01:00:55;11.50;87.10
25953;DHT22;13750;50.804;8.764;2022-10-31T01:03:22;11.50;87.00
25953;DHT22;13750;50.804;8.764;2022-10-31T01:08:22;11.50;87.00
25953;DHT22;13750;50.804;8.764;2022-10-31T01:10:57;11.50;86.90
25953;DHT22;13750;50.804;8.764;2022-10-31T01:13:23;11.40;86.80
25953;DHT22;13750;50.804;8.764;2022-10-31T01:15:53;11.40;86.80
25953;DHT22;13750;50.804;8.764;2022-10-31T01:18:18;11.40;86.80
25953;DHT22;13750;50.804;8.764;2022-10-31T01:20:44;11.40;86.80
25953;DHT22;13750;50.804;8.764;2022-10-31T01:23:09;11.40;86.70
25953;DHT22;13750;50.804;8.764;2022-10-31T01:25:35;11.40;86.80
25953;DHT22;13750;50.804;8.764;2022-10-31T01:28:01;11.40;86.80
25953;DHT22;13750;50.804;8.764;2022-10-31T01:30:27;11.30;86.80
25953;DHT22;13750;50.804;8.764;2022-10-31T01:32:52;11.40;86.80
25953;DHT22;13750;50.804;8.764;2022-10-31T01:35:18;11.40;86.80
25953;DHT22;13750;50.804;8.764;2022-10-31T01:37:43;11.40;86.90
25953;DHT22;13750;50.804;8.764;2022-10-31T01:40:09;11.30;86.90
25953;DHT22;13750;50.804;8.764;2022-10-31T01:42:35;11.40;86.90
25953;DHT22;13750;50.804;8.764;2022-10-31T01:45:01;11.40;87.00
25953;DHT22;13750;50.804;8.764;2022-10-31T01:47:38;11.40;87.00
25953;DHT22;13750;50.804;8.764;2022-10-31T01:50:09;11.40;87.00
25953;DHT22;13750;50.804;8.764;2022-10-31T01:52:37;11.30;87.00
25953;DHT22;13750;50.804;8.764;2022-10-31T01:57:39;11.30;87.10
25953;DHT22;13750;50.804;8.764;2022-10-31T02:00:06;11.30;87.20
25953;DHT22;13750;50.804;8.764;2022-10-31T02:02:32;11.30;87.20
25953;DHT22;13750;50.804;8.764;2022-10-31T02:04:58;11.30;87.10
25953;DHT22;13750;50.804;8.764;2022-10-31T02:07:33;11.30;87.10
25953;DHT22;13750;50.804;8.764;2022-10-31T02:10:00;11.30;87.20
25953;DHT22;13750;50.804;8.764;2022-10-31T02:12:26;11.30;87.20
25953;DHT22;13750;50.804;8.764;2022-10-31T02:14:51;11.20;87.10
25953;DHT22;13750;50.804;8.764;2022-10-31T02:17:17;11.30;87.10
25953;DHT22;13750;50.804;8.764;2022-10-31T02:30:22;11.20;87.20
25953;DHT22;13750;50.804;8.764;2022-10-31T02:40:38;11.20;87.20
25953;DHT22;13750;50.804;8.764;2022-10-31T02:43:06;11.20;87.20
25953;DHT22;13750;50.804;8.764;2022-10-31T02:48:04;11.10;87.20
25953;DHT22;13750;50.804;8.764;2022-10-31T02:50:34;11.10;87.20
25953;DHT22;13750;50.804;8.764;2022-10-31T02:53:00;11.10;87.30
25953;DHT22;13750;50.804;8.764;2022-10-31T02:57:56;11.10;87.30
25953;DHT22;13750;50.804;8.764;2022-10-31T03:00:22;11.10;87.20
25953;DHT22;13750;50.804;8.764;2022-10-31T03:16:09;11.10;87.30
25953;DHT22;13750;50.804;8.764;2022-10-31T03:18:39;11.10;87.30
25953;DHT22;13750;50.804;8.764;2022-10-31T03:21:07;11.10;87.30
25953;DHT22;13750;50.804;8.764;2022-10-31T03:23:35;11.10;87.30
25953;DHT22;13750;50.804;8.764;2022-10-31T03:28:32;11.10;87.20
25953;DHT22;13750;50.804;8.764;2022-10-31T03:30:59;11.10;87.30
25953;DHT22;13750;50.804;8.764;2022-10-31T03:33:27;11.10;87.30
25953;DHT22;13750;50.804;8.764;2022-10-31T03:35:54;11.10;87.20
25953;DHT22;13750;50.804;8.764;2022-10-31T03:38:21;11.00;87.10
25953;DHT22;13750;50.804;8.764;2022-10-31T03:40:47;11.00;87.20
25953;DHT22;13750;50.804;8.764;2022-10-31T03:43:16;11.10;87.20
25953;DHT22;13750;50.804;8.764;2022-10-31T03:45:43;11.00;87.10
25953;DHT22;13750;50.804;8.764;2022-10-31T03:48:10;11.00;87.10
25953;DHT22;13750;50.804;8.764;2022-10-31T03:53:13;11.00;87.10
25953;DHT22;13750;50.804;8.764;2022-10-31T03:55:52;11.00;87.20
25953;DHT22;13750;50.804;8.764;2022-10-31T03:58:22;11.00;87.20
25953;DHT22;13750;50.804;8.764;2022-10-31T04:00:50;10.90;87.10
25953;DHT22;13750;50.804;8.764;2022-10-31T04:03:17;10.90;87.10
25953;DHT22;13750;50.804;8.764;2022-10-31T04:05:45;11.00;87.20
25953;DHT22;13750;50.804;8.764;2022-10-31T04:08:13;10.90;87.10
25953;DHT22;13750;50.804;8.764;2022-10-31T04:10:40;10.90;87.20
25953;DHT22;13750;50.804;8.764;2022-10-31T04:13:08;10.90;87.20
25953;DHT22;13750;50.804;8.764;2022-10-31T04:15:35;10.90;87.20
25953;DHT22;13750;50.804;8.764;2022-10-31T04:18:02;10.90;87.30
25953;DHT22;13750;50.804;8.764;2022-10-31T04:20:30;10.90;87.30
25953;DHT22;13750;50.804;8.764;2022-10-31T04:22:56;10.90;87.30
25953;DHT22;13750;50.804;8.764;2022-10-31T04:25:22;10.80;87.30
25953;DHT22;13750;50.804;8.764;2022-10-31T04:27:48;10.80;87.30
25953;DHT22;13750;50.804;8.764;2022-10-31T04:30:13;10.80;87.40
25953;DHT22;13750;50.804;8.764;2022-10-31T04:32:39;10.80;87.40
25953;DHT22;13750;50.804;8.764;2022-10-31T04:35:04;10.80;87.40
25953;DHT22;13750;50.804;8.764;2022-10-31T04:37:30;10.80;87.40
25953;DHT22;13750;50.804;8.764;2022-10-31T04:39:56;10.70;87.50
25953;DHT22;13750;50.804;8.764;2022-10-31T04:42:21;10.70;87.50
25953;DHT22;13750;50.804;8.764;2022-10-31T04:44:47;10.70;87.50
25953;DHT22;13750;50.804;8.764;2022-10-31T04:47:12;10.70;87.50
25953;DHT22;13750;50.804;8.764;2022-10-31T04:49:38;10.70;87.50
25953;DHT22;13750;50.804;8.764;2022-10-31T04:52:03;10.70;87.60
25953;DHT22;13750;50.804;8.764;2022-10-31T04:54:29;10.70;87.60
25953;DHT22;13750;50.804;8.764;2022-10-31T04:56:54;10.70;87.60
25953;DHT22;13750;50.804;8.764;2022-10-31T04:59:20;10.60;87.60
25953;DHT22;13750;50.804;8.764;2022-10-31T05:01:45;10.60;87.70
25953;DHT22;13750;50.804;8.764;2022-10-31T05:04:11;10.60;87.70
25953;DHT22;13750;50.804;8.764;2022-10-31T05:06:36;10.60;87.70
25953;DHT22;13750;50.804;8.764;2022-10-31T05:09:02;10.60;87.70
25953;DHT22;13750;50.804;8.764;2022-10-31T05:11:27;10.60;87.70
25953;DHT22;13750;50.804;8.764;2022-10-31T05:13:53;10.60;87.80
25953;DHT22;13750;50.804;8.764;2022-10-31T05:16:18;10.60;87.70
25953;DHT22;13750;50.804;8.764;2022-10-31T05:18:44;10.60;87.70
25953;DHT22;13750;50.804;8.764;2022-10-31T05:21:09;10.60;87.70
25953;DHT22;13750;50.804;8.764;2022-10-31T05:23:35;10.50;87.70
25953;DHT22;13750;50.804;8.764;2022-10-31T05:26:01;10.50;87.60
25953;DHT22;13750;50.804;8.764;2022-10-31T05:28:26;10.50;87.70
25953;DHT22;13750;50.804;8.764;2022-10-31T05:30:52;10.50;87.70
25953;DHT22;13750;50.804;8.764;2022-10-31T05:33:17;10.50;87.70
25953;DHT22;13750;50.804;8.764;2022-10-31T05:35:43;10.50;87.70
25953;DHT22;13750;50.804;8.764;2022-10-31T05:38:08;10.50;87.70
25953;DHT22;13750;50.804;8.764;2022-10-31T05:40:34;10.40;87.70
25953;DHT22;13750;50.804;8.764;2022-10-31T05:42:59;10.50;87.60
25953;DHT22;13750;50.804;8.764;2022-10-31T05:45:25;10.40;87.60
25953;DHT22;13750;50.804;8.764;2022-10-31T05:50:16;10.40;87.50
25953;DHT22;13750;50.804;8.764;2022-10-31T05:52:41;10.40;87.40
25953;DHT22;13750;50.804;8.764;2022-10-31T05:55:07;10.40;87.40
25953;DHT22;13750;50.804;8.764;2022-10-31T05:57:32;10.40;87.40
25953;DHT22;13750;50.804;8.764;2022-10-31T05:59:59;10.40;87.40
25953;DHT22;13750;50.804;8.764;2022-10-31T06:02:24;10.40;87.40
25953;DHT22;13750;50.804;8.764;2022-10-31T06:04:50;10.40;87.30
25953;DHT22;13750;50.804;8.764;2022-10-31T06:07:15;10.40;87.30
25953;DHT22;13750;50.804;8.764;2022-10-31T06:09:41;10.40;87.30
25953;DHT22;13750;50.804;8.764;2022-10-31T06:12:07;10.40;87.20
25953;DHT22;13750;50.804;8.764;2022-10-31T06:14:32;10.40;87.20
25953;DHT22;13750;50.804;8.764;2022-10-31T06:16:58;10.40;87.20
25953;DHT22;13750;50.804;8.764;2022-10-31T06:19:23;10.40;87.10
25953;DHT22;13750;50.804;8.764;2022-10-31T06:21:49;10.40;87.10
25953;DHT22;13750;50.804;8.764;2022-10-31T06:24:14;10.40;87.10
25953;DHT22;13750;50.804;8.764;2022-10-31T06:26:43;10.40;87.10
25953;DHT22;13750;50.804;8.764;2022-10-31T06:29:08;10.40;87.00
25953;DHT22;13750;50.804;8.764;2022-10-31T06:31:34;10.30;86.90
25953;DHT22;13750;50.804;8.764;2022-10-31T06:33:59;10.30;86.90
25953;DHT22;13750;50.804;8.764;2022-10-31T06:36:26;10.40;86.90
25953;DHT22;13750;50.804;8.764;2022-10-31T06:38:51;10.30;86.90
25953;DHT22;13750;50.804;8.764;2022-10-31T06:41:17;10.30;86.80
25953;DHT22;13750;50.804;8.764;2022-10-31T06:43:42;10.30;86.90
25953;DHT22;13750;50.804;8.764;2022-10-31T06:46:10;10.30;86.80
25953;DHT22;13750;50.804;8.764;2022-10-31T06:48:36;10.30;86.70
25953;DHT22;13750;50.804;8.764;2022-10-31T06:51:01;10.30;86.70
25953;DHT22;13750;50.804;8.764;2022-10-31T06:53:27;10.40;86.60
25953;DHT22;13750;50.804;8.764;2022-10-31T06:55:55;10.40;86.70
25953;DHT22;13750;50.804;8.764;2022-10-31T06:58:20;10.40;86.70
25953;DHT22;13750;50.804;8.764;2022-10-31T07:00:46;10.30;86.60
25953;DHT22;13750;50.804;8.764;2022-10-31T07:03:12;10.40;86.60
25953;DHT22;13750;50.804;8.764;2022-10-31T07:05:38;10.30;86.70
25953;DHT22;13750;50.804;8.764;2022-10-31T07:08:05;10.30;86.70
25953;DHT22;13750;50.804;8.764;2022-10-31T07:10:32;10.30;86.70
25953;DHT22;13750;50.804;8.764;2022-10-31T07:12:59;10.30;86.80
25953;DHT22;13750;50.804;8.764;2022-10-31T07:15:25;10.40;86.80
25953;DHT22;13750;50.804;8.764;2022-10-31T07:17:51;10.30;86.80
25953;DHT22;13750;50.804;8.764;2022-10-31T07:20:17;10.40;86.80
25953;DHT22;13750;50.804;8.764;2022-10-31T07:22:43;10.40;86.80
25953;DHT22;13750;50.804;8.764;2022-10-31T07:25:08;10.40;86.80
25953;DHT22;13750;50.804;8.764;2022-10-31T07:27:38;10.40;86.90
25953;DHT22;13750;50.804;8.764;2022-10-31T07:30:04;10.40;86.80
25953;DHT22;13750;50.804;8.764;2022-10-31T07:32:42;10.40;86.90
25953;DHT22;13750;50.804;8.764;2022-10-31T07:35:09;10.50;86.90
25953;DHT22;13750;50.804;8.764;2022-10-31T07:37:35;10.40;86.90
25953;DHT22;13750;50.804;8.764;2022-10-31T07:40:01;10.40;86.90
25953;DHT22;13750;50.804;8.764;2022-10-31T07:42:27;10.50;86.90
25953;DHT22;13750;50.804;8.764;2022-10-31T07:44:52;10.50;87.00
25953;DHT22;13750;50.804;8.764;2022-10-31T07:47:18;10.50;86.90
25953;DHT22;13750;50.804;8.764;2022-10-31T07:49:43;10.50;87.00
25953;DHT22;13750;50.804;8.764;2022-10-31T07:52:09;10.50;87.00
25953;DHT22;13750;50.804;8.764;2022-10-31T07:54:34;10.60;87.10
25953;DHT22;13750;50.804;8.764;2022-10-31T07:57:00;10.60;87.10
25953;DHT22;13750;50.804;8.764;2022-10-31T07:59:25;10.60;87.20
25953;DHT22;13750;50.804;8.764;2022-10-31T08:01:52;10.60;87.20
25953;DHT22;13750;50.804;8.764;2022-10-31T08:04:18;10.70;87.20
25953;DHT22;13750;50.804;8.764;2022-10-31T08:06:43;10.70;87.20
25953;DHT22;13750;50.804;8.764;2022-10-31T08:09:09;10.80;87.30
25953;DHT22;13750;50.804;8.764;2022-10-31T08:11:34;10.70;87.30
25953;DHT22;13750;50.804;8.764;2022-10-31T08:14:00;10.80;87.40
25953;DHT22;13750;50.804;8.764;2022-10-31T08:16:26;10.80;87.40
25953;DHT22;13750;50.804;8.764;2022-10-31T08:18:52;10.90;87.40
25953;DHT22;13750;50.804;8.764;2022-10-31T08:21:19;10.90;87.40
25953;DHT22;13750;50.804;8.764;2022-10-31T08:23:45;10.90;87.50
25953;DHT22;13750;50.804;8.764;2022-10-31T08:26:10;11.00;87.40
25953;DHT22;13750;50.804;8.764;2022-10-31T08:28:36;11.00;87.40
25953;DHT22;13750;50.804;8.764;2022-10-31T08:31:01;11.00;87.30
25953;DHT22;13750;50.804;8.764;2022-10-31T08:33:27;11.10;87.30
25953;DHT22;13750;50.804;8.764;2022-10-31T08:35:52;11.10;87.40
25953;DHT22;13750;50.804;8.764;2022-10-31T08:38:18;11.10;87.40
25953;DHT22;13750;50.804;8.764;2022-10-31T08:40:47;11.10;87.40
25953;DHT22;13750;50.804;8.764;2022-10-31T08:43:14;11.20;87.40
25953;DHT22;13750;50.804;8.764;2022-10-31T08:45:40;11.20;87.30
25953;DHT22;13750;50.804;8.764;2022-10-31T08:48:06;11.20;87.30
25953;DHT22;13750;50.804;8.764;2022-10-31T08:50:33;11.20;87.30
25953;DHT22;13750;50.804;8.764;2022-10-31T08:53:20;11.30;87.40
25953;DHT22;13750;50.804;8.764;2022-10-31T08:55:45;11.30;87.40
25953;DHT22;13750;50.804;8.764;2022-10-31T08:58:15;11.40;87.40
25953;DHT22;13750;50.804;8.764;2022-10-31T09:00:41;11.40;87.50
25953;DHT22;13750;50.804;8.764;2022-10-31T09:03:11;11.40;87.50
25953;DHT22;13750;50.804;8.764;2022-10-31T09:05:37;11.50;87.50
25953;DHT22;13750;50.804;8.764;2022-10-31T09:08:03;11.50;87.40
25953;DHT22;13750;50.804;8.764;2022-10-31T09:10:29;11.50;87.50
25953;DHT22;13750;50.804;8.764;2022-10-31T09:12:59;11.60;87.60
25953;DHT22;13750;50.804;8.764;2022-10-31T09:15:25;11.60;87.70
25953;DHT22;13750;50.804;8.764;2022-10-31T09:17:51;11.60;87.80
25953;DHT22;13750;50.804;8.764;2022-10-31T09:20:17;11.70;87.80
25953;DHT22;13750;50.804;8.764;2022-10-31T09:22:42;11.70;87.70
25953;DHT22;13750;50.804;8.764;2022-10-31T09:25:08;11.70;87.80
25953;DHT22;13750;50.804;8.764;2022-10-31T09:27:34;11.80;88.20
25953;DHT22;13750;50.804;8.764;2022-10-31T09:30:00;11.90;88.30
25953;DHT22;13750;50.804;8.764;2022-10-31T09:32:25;12.00;88.30
25953;DHT22;13750;50.804;8.764;2022-10-31T09:34:51;12.10;88.40
25953;DHT22;13750;50.804;8.764;2022-10-31T09:37:16;12.10;88.40
25953;DHT22;13750;50.804;8.764;2022-10-31T09:39:42;12.20;88.40
25953;DHT22;13750;50.804;8.764;2022-10-31T09:42:11;12.30;88.30
25953;DHT22;13750;50.804;8.764;2022-10-31T09:47:12;12.40;88.30
25953;DHT22;13750;50.804;8.764;2022-10-31T09:49:48;12.50;88.20
25953;DHT22;13750;50.804;8.764;2022-10-31T09:52:23;12.60;88.00
25953;DHT22;13750;50.804;8.764;2022-10-31T09:57:17;12.60;87.80
25953;DHT22;13750;50.804;8.764;2022-10-31T09:59:44;12.70;87.70
25953;DHT22;13750;50.804;8.764;2022-10-31T10:02:22;12.70;87.70
25953;DHT22;13750;50.804;8.764;2022-10-31T10:09:56;12.90;87.70
25953;DHT22;13750;50.804;8.764;2022-10-31T10:12:28;13.00;87.60
25953;DHT22;13750;50.804;8.764;2022-10-31T10:17:37;13.10;87.30
25953;DHT22;13750;50.804;8.764;2022-10-31T10:20:10;13.10;87.20
25953;DHT22;13750;50.804;8.764;2022-10-31T10:22:52;13.20;87.00
25953;DHT22;13750;50.804;8.764;2022-10-31T10:25:23;13.20;87.00
25953;DHT22;13750;50.804;8.764;2022-10-31T10:30:21;13.30;86.70
25953;DHT22;13750;50.804;8.764;2022-10-31T10:32:48;13.30;86.70
25953;DHT22;13750;50.804;8.764;2022-10-31T10:37:48;13.30;86.50
25953;DHT22;13750;50.804;8.764;2022-10-31T10:40:20;13.30;86.50
25953;DHT22;13750;50.804;8.764;2022-10-31T10:42:56;13.30;86.40
25953;DHT22;13750;50.804;8.764;2022-10-31T10:45:42;13.30;86.40
25953;DHT22;13750;50.804;8.764;2022-10-31T10:48:32;13.30;86.80
25953;DHT22;13750;50.804;8.764;2022-10-31T10:51:00;13.40;87.00
25953;DHT22;13750;50.804;8.764;2022-10-31T10:56:17;13.40;86.80
25953;DHT22;13750;50.804;8.764;2022-10-31T10:58:43;13.50;86.70
25953;DHT22;13750;50.804;8.764;2022-10-31T11:01:13;13.50;86.40
25953;DHT22;13750;50.804;8.764;2022-10-31T11:03:39;13.60;86.30
25953;DHT22;13750;50.804;8.764;2022-10-31T11:06:15;13.60;86.50
25953;DHT22;13750;50.804;8.764;2022-10-31T11:08:41;13.60;86.40
25953;DHT22;13750;50.804;8.764;2022-10-31T11:11:14;13.60;86.20
25953;DHT22;13750;50.804;8.764;2022-10-31T11:13:45;13.60;86.10
25953;DHT22;13750;50.804;8.764;2022-10-31T11:16:12;13.60;86.40
25953;DHT22;13750;50.804;8.764;2022-10-31T11:18:42;13.60;86.30
25953;DHT22;13750;50.804;8.764;2022-10-31T11:21:20;13.60;86.40
25953;DHT22;13750;50.804;8.764;2022-10-31T11:23:46;13.60;86.50
25953;DHT22;13750;50.804;8.764;2022-10-31T11:26:18;13.60;86.70
25953;DHT22;13750;50.804;8.764;2022-10-31T11:28:44;13.60;86.80
25953;DHT22;13750;50.804;8.764;2022-10-31T11:31:20;13.70;86.70
25953;DHT22;13750;50.804;8.764;2022-10-31T11:33:50;13.70;86.70
25953;DHT22;13750;50.804;8.764;2022-10-31T11:36:22;13.80;86.60
25953;DHT22;13750;50.804;8.764;2022-10-31T11:38:48;13.80;86.40
25953;DHT22;13750;50.804;8.764;2022-10-31T11:43:39;13.80;85.90
25953;DHT22;13750;50.804;8.764;2022-10-31T11:46:18;13.80;85.90
25953;DHT22;13750;50.804;8.764;2022-10-31T11:48:47;13.80;86.00
25953;DHT22;13750;50.804;8.764;2022-10-31T11:51:12;13.80;86.10
25953;DHT22;13750;50.804;8.764;2022-10-31T11:53:49;13.80;86.10
25953;DHT22;13750;50.804;8.764;2022-10-31T11:56:16;13.80;86.10
25953;DHT22;13750;50.804;8.764;2022-10-31T11:58:41;13.80;86.30
25953;DHT22;13750;50.804;8.764;2022-10-31T12:01:20;13.80;86.40
25953;DHT22;13750;50.804;8.764;2022-10-31T12:03:54;13.80;86.40
25953;DHT22;13750;50.804;8.764;2022-10-31T12:06:26;13.90;86.40
25953;DHT22;13750;50.804;8.764;2022-10-31T12:08:53;13.90;86.50
25953;DHT22;13750;50.804;8.764;2022-10-31T12:27:04;14.00;86.20
25953;DHT22;13750;50.804;8.764;2022-10-31T12:29:39;14.00;86.20
25953;DHT22;13750;50.804;8.764;2022-10-31T12:34:52;13.90;86.20
25953;DHT22;13750;50.804;8.764;2022-10-31T12:37:27;14.00;86.30
25953;DHT22;13750;50.804;8.764;2022-10-31T12:45:03;14.00;86.50
25953;DHT22;13750;50.804;8.764;2022-10-31T12:47:38;14.00;86.40
25953;DHT22;13750;50.804;8.764;2022-10-31T12:50:28;14.00;86.40
25953;DHT22;13750;50.804;8.764;2022-10-31T12:55:41;14.10;86.50
25953;DHT22;13750;50.804;8.764;2022-10-31T12:58:45;14.10;86.50
25953;DHT22;13750;50.804;8.764;2022-10-31T13:01:16;14.10;86.40
25953;DHT22;13750;50.804;8.764;2022-10-31T13:06:42;14.10;86.40
25953;DHT22;13750;50.804;8.764;2022-10-31T13:09:13;14.10;86.40
25953;DHT22;13750;50.804;8.764;2022-10-31T13:12:02;14.10;86.50
25953;DHT22;13750;50.804;8.764;2022-10-31T13:14:27;14.10;86.50
25953;DHT22;13750;50.804;8.764;2022-10-31T13:16:57;14.10;86.50
25953;DHT22;13750;50.804;8.764;2022-10-31T13:19:42;14.10;86.50
25953;DHT22;13750;50.804;8.764;2022-10-31T13:22:18;14.10;86.50
25953;DHT22;13750;50.804;8.764;2022-10-31T13:27:24;14.10;86.50
25953;DHT22;13750;50.804;8.764;2022-10-31T13:30:04;14.10;86.40
25953;DHT22;13750;50.804;8.764;2022-10-31T13:35:20;14.10;86.50
25953;DHT22;13750;50.804;8.764;2022-10-31T13:37:49;14.10;86.40
25953;DHT22;13750;50.804;8.764;2022-10-31T13:40:28;14.10;86.40
25953;DHT22;13750;50.804;8.764;2022-10-31T13:45:26;14.10;86.40
25953;DHT22;13750;50.804;8.764;2022-10-31T13:47:59;14.10;86.60
25953;DHT22;13750;50.804;8.764;2022-10-31T13:50:29;14.20;86.70
25953;DHT22;13750;50.804;8.764;2022-10-31T13:55:41;14.20;86.50
25953;DHT22;13750;50.804;8.764;2022-10-31T13:58:26;14.20;86.50
25953;DHT22;13750;50.804;8.764;2022-10-31T14:03:24;14.30;86.40
25953;DHT22;13750;50.804;8.764;2022-10-31T14:05:53;14.30;86.40
25953;DHT22;13750;50.804;8.764;2022-10-31T14:08:20;14.30;86.50
25953;DHT22;13750;50.804;8.764;2022-10-31T14:10:48;14.20;86.50
25953;DHT22;13750;50.804;8.764;2022-10-31T14:15:51;14.30;86.80
25953;DHT22;13750;50.804;8.764;2022-10-31T14:18:34;14.40;86.70
25953;DHT22;13750;50.804;8.764;2022-10-31T14:21:00;14.40;86.60
25953;DHT22;13750;50.804;8.764;2022-10-31T14:23:38;14.40;86.70
25953;DHT22;13750;50.804;8.764;2022-10-31T14:26:19;14.40;86.70
25953;DHT22;13750;50.804;8.764;2022-10-31T14:28:46;14.40;86.60
25953;DHT22;13750;50.804;8.764;2022-10-31T14:33:49;14.50;86.60
25953;DHT22;13750;50.804;8.764;2022-10-31T14:36:19;14.40;86.60
25953;DHT22;13750;50.804;8.764;2022-10-31T14:46:23;14.40;86.90
25953;DHT22;13750;50.804;8.764;2022-10-31T14:51:23;14.40;86.90
25953;DHT22;13750;50.804;8.764;2022-10-31T14:56:34;14.40;87.00
25953;DHT22;13750;50.804;8.764;2022-10-31T14:59:02;14.40;87.00
25953;DHT22;13750;50.804;8.764;2022-10-31T15:01:29;14.50;87.00
25953;DHT22;13750;50.804;8.764;2022-10-31T15:06:30;14.40;87.00
25953;DHT22;13750;50.804;8.764;2022-10-31T15:09:00;14.40;87.00
25953;DHT22;13750;50.804;8.764;2022-10-31T15:11:26;14.40;87.00
25953;DHT22;13750;50.804;8.764;2022-10-31T15:16:22;14.40;87.30
25953;DHT22;13750;50.804;8.764;2022-10-31T15:18:51;14.40;87.30
25953;DHT22;13750;50.804;8.764;2022-10-31T15:21:17;14.50;87.20
25953;DHT22;13750;50.804;8.764;2022-10-31T15:23:43;14.40;87.20
25953;DHT22;13750;50.804;8.764;2022-10-31T15:26:16;14.50;87.20
25953;DHT22;13750;50.804;8.764;2022-10-31T15:28:42;14.40;87.20
25953;DHT22;13750;50.804;8.764;2022-10-31T15:31:17;14.40;87.30
25953;DHT22;13750;50.804;8.764;2022-10-31T15:33:45;14.40;87.40
25953;DHT22;13750;50.804;8.764;2022-10-31T15:36:18;14.40;87.30
25953;DHT22;13750;50.804;8.764;2022-10-31T15:38:44;14.40;87.30
25953;DHT22;13750;50.804;8.764;2022-10-31T15:43:55;14.40;87.60
25953;DHT22;13750;50.804;8.764;2022-10-31T15:46:22;14.40;87.60
25953;DHT22;13750;50.804;8.764;2022-10-31T15:48:48;14.40;87.50
25953;DHT22;13750;50.804;8.764;2022-10-31T15:51:13;14.40;87.40
25953;DHT22;13750;50.804;8.764;2022-10-31T15:56:08;14.40;87.40
25953;DHT22;13750;50.804;8.764;2022-10-31T15:58:46;14.30;87.40
25953;DHT22;13750;50.804;8.764;2022-10-31T16:06:25;14.30;87.40
25953;DHT22;13750;50.804;8.764;2022-10-31T16:08:50;14.40;87.40
25953;DHT22;13750;50.804;8.764;2022-10-31T16:11:17;14.30;87.50
25953;DHT22;13750;50.804;8.764;2022-10-31T16:16:18;14.30;87.50
25953;DHT22;13750;50.804;8.764;2022-10-31T16:18:45;14.30;87.50
25953;DHT22;13750;50.804;8.764;2022-10-31T16:21:11;14.20;87.60
25953;DHT22;13750;50.804;8.764;2022-10-31T16:23:38;14.20;87.60
25953;DHT22;13750;50.804;8.764;2022-10-31T16:26:08;14.30;87.60
25953;DHT22;13750;50.804;8.764;2022-10-31T16:28:35;14.30;87.70
25953;DHT22;13750;50.804;8.764;2022-10-31T16:31:00;14.20;87.80
25953;DHT22;13750;50.804;8.764;2022-10-31T16:33:44;14.30;87.90
25953;DHT22;13750;50.804;8.764;2022-10-31T16:36:29;14.20;87.90
25953;DHT22;13750;50.804;8.764;2022-10-31T16:38:58;14.30;87.90
25953;DHT22;13750;50.804;8.764;2022-10-31T16:41:24;14.20;87.90
25953;DHT22;13750;50.804;8.764;2022-10-31T16:43:50;14.20;87.80
25953;DHT22;13750;50.804;8.764;2022-10-31T16:46:18;14.20;87.80
25953;DHT22;13750;50.804;8.764;2022-10-31T16:48:45;14.20;87.90
25953;DHT22;13750;50.804;8.764;2022-10-31T16:51:10;14.20;87.90
25953;DHT22;13750;50.804;8.764;2022-10-31T16:53:36;14.20;87.90
25953;DHT22;13750;50.804;8.764;2022-10-31T16:56:02;14.20;87.90
25953;DHT22;13750;50.804;8.764;2022-10-31T16:58:29;14.20;87.90
25953;DHT22;13750;50.804;8.764;2022-10-31T17:00:55;14.20;88.00
25953;DHT22;13750;50.804;8.764;2022-10-31T17:03:21;14.10;88.00
25953;DHT22;13750;50.804;8.764;2022-10-31T17:05:47;14.10;88.00
25953;DHT22;13750;50.804;8.764;2022-10-31T17:08:13;14.20;88.10
25953;DHT22;13750;50.804;8.764;2022-10-31T17:10:39;14.20;88.10
25953;DHT22;13750;50.804;8.764;2022-10-31T17:13:05;14.10;88.10
25953;DHT22;13750;50.804;8.764;2022-10-31T17:15:34;14.10;88.00
25953;DHT22;13750;50.804;8.764;2022-10-31T17:18:02;14.20;88.10
25953;DHT22;13750;50.804;8.764;2022-10-31T17:20:29;14.10;88.10
25953;DHT22;13750;50.804;8.764;2022-10-31T17:22:55;14.10;88.10
25953;DHT22;13750;50.804;8.764;2022-10-31T17:25:25;14.10;88.10
25953;DHT22;13750;50.804;8.764;2022-10-31T17:27:51;14.10;88.10
25953;DHT22;13750;50.804;8.764;2022-10-31T17:30:17;14.10;88.10
25953;DHT22;13750;50.804;8.764;2022-10-31T17:32:44;14.10;88.10
25953;DHT22;13750;50.804;8.764;2022-10-31T17:35:10;14.10;88.10
25953;DHT22;13750;50.804;8.764;2022-10-31T17:37:37;14.10;88.20
25953;DHT22;13750;50.804;8.764;2022-10-31T17:40:03;14.10;88.40
25953;DHT22;13750;50.804;8.764;2022-10-31T17:42:28;14.00;88.30
25953;DHT22;13750;50.804;8.764;2022-10-31T17:44:54;14.10;88.30
25953;DHT22;13750;50.804;8.764;2022-10-31T17:47:19;14.10;88.30
25953;DHT22;13750;50.804;8.764;2022-10-31T17:49:45;14.00;88.20
25953;DHT22;13750;50.804;8.764;2022-10-31T17:52:10;14.00;88.30
25953;DHT22;13750;50.804;8.764;2022-10-31T17:54:36;14.00;88.30
25953;DHT22;13750;50.804;8.764;2022-10-31T17:57:01;14.00;88.30
25953;DHT22;13750;50.804;8.764;2022-10-31T17:59:27;14.00;88.30
25953;DHT22;13750;50.804;8.764;2022-10-31T18:01:54;14.00;88.30
25953;DHT22;13750;50.804;8.764;2022-10-31T18:04:20;14.00;88.30